Time;durP1;ratioP1;P1;durP2;ratioP2;P2;SDS_P1;SDS_P2;PMS_P1;PMS_P2;Temp;Humidity;BMP_temperature;BMP_pressure;BME280_temperature;BME280_humidity;BME280_pressure;Samples;Min_cycle;Max_cycle;Signal;HPM_P1;HPM_P2
2021/03/08 00:00:45;;;;;;;4.87;4.45;;;;;;;10.87;47.44;99028.45;1781499;80;21548;-65
2021/03/08 00:03:14;;;;;;;4.83;4.33;;;;;;;10.86;47.43;99028.95;1789363;79;21156;-65
2021/03/08 00:05:43;;;;;;;5.10;4.60;;;;;;;10.86;47.43;99026.30;1798367;79;21587;-66
2021/03/08 00:08:12;;;;;;;5.35;4.35;;;;;;;10.85;47.44;99026.48;1800200;79;21128;-65
2021/03/08 00:10:41;;;;;;;5.15;4.33;;;;;;;10.85;47.45;99019.84;1794470;79;21579;-64
2021/03/08 00:13:09;;;;;;;6.03;4.92;;;;;;;10.86;47.44;99020.17;1771874;79;21219;-64
2021/03/08 00:15:36;;;;;;;5.35;4.35;;;;;;;10.85;47.44;99015.34;1777170;80;21552;-66
2021/03/08 00:18:04;;;;;;;5.83;5.22;;;;;;;10.85;47.42;99013.20;1786741;80;21574;-66
2021/03/08 00:20:34;;;;;;;5.40;4.50;;;;;;;10.85;47.46;99006.55;1790632;79;21148;-68
2021/03/08 00:23:02;;;;;;;4.58;3.95;;;;;;;10.85;47.44;99003.89;1772835;80;21389;-65
2021/03/08 00:25:34;;;;;;;6.08;4.70;;;;;;;10.84;47.46;99008.91;1772399;80;21191;-64
2021/03/08 00:28:02;;;;;;;5.30;4.40;;;;;;;10.84;47.45;99004.41;1782343;79;21174;-64
2021/03/08 00:30:29;;;;;;;5.28;4.60;;;;;;;10.84;47.46;98996.44;1778345;80;21178;-65
2021/03/08 00:32:57;;;;;;;4.78;4.28;;;;;;;10.84;47.46;98991.12;1806394;79;21159;-64
2021/03/08 00:35:27;;;;;;;5.35;4.45;;;;;;;10.82;47.46;98985.99;1784119;80;21384;-64
2021/03/08 00:37:54;;;;;;;4.70;4.30;;;;;;;10.83;47.47;98984.15;1788352;79;21099;-64
2021/03/08 00:40:22;;;;;;;5.47;4.47;;;;;;;10.84;47.47;98987.14;1781552;80;21655;-65
2021/03/08 00:42:50;;;;;;;5.42;4.78;;;;;;;10.83;47.47;98985.48;1802672;79;21260;-64
2021/03/08 00:45:19;;;;;;;4.97;4.25;;;;;;;10.84;47.48;98977.02;1774210;80;21168;-64
2021/03/08 00:47:48;;;;;;;4.15;3.75;;;;;;;10.82;47.49;98978.02;1777604;80;22269;-65
2021/03/08 00:50:22;;;;;;;4.65;4.12;;;;;;;10.82;47.47;98979.34;1802303;79;21957;-65
2021/03/08 00:52:50;;;;;;;5.08;4.47;;;;;;;10.82;47.47;98965.25;1773576;80;26051;-65
2021/03/08 00:55:19;;;;;;;5.62;4.78;;;;;;;10.82;47.49;98965.25;1776695;80;21139;-65
2021/03/08 00:57:47;;;;;;;5.12;4.42;;;;;;;10.81;47.47;98970.23;1775810;80;21405;-66
2021/03/08 01:00:25;;;;;;;4.58;4.17;;;;;;;10.81;47.48;98963.59;1783918;80;21205;-65
2021/03/08 01:02:56;;;;;;;5.85;4.30;;;;;;;10.81;47.50;98959.61;1767758;80;21159;-65
2021/03/08 01:05:26;;;;;;;5.17;4.08;;;;;;;10.81;47.50;98954.29;1770465;80;21112;-65
2021/03/08 01:07:54;;;;;;;5.05;4.50;;;;;;;10.80;47.51;98957.46;1805644;79;21149;-67
2021/03/08 01:10:27;;;;;;;4.47;4.00;;;;;;;10.80;47.52;98955.32;1798500;79;21199;-66
2021/03/08 01:12:55;;;;;;;5.95;4.70;;;;;;;10.79;47.52;98951.00;1798752;79;21381;-65
2021/03/08 01:15:23;;;;;;;5.28;4.33;;;;;;;10.79;47.52;98941.19;1771305;80;21182;-65
2021/03/08 01:17:52;;;;;;;4.45;3.98;;;;;;;10.79;47.53;98937.72;1758036;80;21119;-65
2021/03/08 01:20:20;;;;;;;4.53;3.95;;;;;;;10.72;47.54;98924.38;1732143;81;21593;-65
2021/03/08 01:22:48;;;;;;;4.87;4.37;;;;;;;10.79;47.52;98947.83;1740579;81;21144;-65
2021/03/08 01:25:20;;;;;;;5.20;4.45;;;;;;;10.79;47.54;98941.19;1755278;81;21450;-66
2021/03/08 01:27:48;;;;;;;4.70;4.12;;;;;;;10.79;47.54;98931.89;1737990;81;21300;-65
2021/03/08 01:30:24;;;;;;;5.80;4.65;;;;;;;10.79;47.55;98925.25;1750989;81;21620;-64
2021/03/08 01:32:52;;;;;;;5.28;4.05;;;;;;;10.79;47.55;98928.42;1747349;81;21114;-66
2021/03/08 01:35:23;;;;;;;4.70;4.20;;;;;;;10.79;47.55;98924.44;1753550;80;21077;-65
2021/03/08 01:37:53;;;;;;;5.95;4.75;;;;;;;10.79;47.54;98926.58;1772817;80;21491;-65
2021/03/08 01:40:23;;;;;;;4.90;3.95;;;;;;;10.78;47.53;98925.46;1784527;78;21170;-66
2021/03/08 01:42:51;;;;;;;4.65;4.17;;;;;;;10.78;47.54;98932.92;1766610;81;21108;-64
2021/03/08 01:45:21;;;;;;;4.67;4.28;;;;;;;10.77;47.56;98927.27;1758141;81;22134;-64
2021/03/08 01:47:51;;;;;;;4.75;3.92;;;;;;;10.79;47.56;98927.09;1766874;81;21605;-64
2021/03/08 01:50:33;;;;;;;4.92;4.42;;;;;;;10.78;47.54;98920.96;1757221;81;21199;-68
2021/03/08 01:53:02;;;;;;;4.95;4.10;;;;;;;10.78;47.53;98924.95;1782058;80;21198;-64
2021/03/08 01:55:29;;;;;;;5.00;4.40;;;;;;;10.77;47.54;98928.60;1763307;81;21573;-65
2021/03/08 01:57:58;;;;;;;4.42;4.03;;;;;;;10.76;47.58;98921.66;1756746;80;21136;-64
2021/03/08 02:00:26;;;;;;;4.92;4.28;;;;;;;10.77;47.57;98929.93;1765328;81;21124;-65
2021/03/08 02:02:55;;;;;;;5.12;4.60;;;;;;;10.77;47.57;98923.29;1752436;80;22286;-65
2021/03/08 02:05:27;;;;;;;5.42;4.65;;;;;;;10.77;47.59;98922.47;1764226;81;21616;-65
2021/03/08 02:07:55;;;;;;;6.25;5.10;;;;;;;10.78;47.56;98918.82;1758413;81;22142;-66
2021/03/08 02:10:24;;;;;;;4.50;4.10;;;;;;;10.76;47.55;98917.67;1763257;80;21207;-65
2021/03/08 02:13:21;;;;;;;4.40;3.62;;;;;;;10.77;47.56;98909.19;1777153;80;21145;-65
2021/03/08 02:16:02;;;;;;;4.80;4.30;;;;;;;10.76;47.57;98913.69;1746241;81;21326;-67
2021/03/08 02:18:59;;;;;;;5.03;4.45;;;;;;;10.76;47.59;98919.00;1740147;81;21547;-66
2021/03/08 02:22:06;;;;;;;4.53;4.05;;;;;;;10.73;47.62;98918.55;1773572;80;21216;-64
2021/03/08 02:25:11;;;;;;;5.03;4.35;;;;;;;10.72;47.64;98920.40;1762159;79;21138;-64
2021/03/08 02:28:15;;;;;;;4.05;3.45;;;;;;;10.69;47.67;98918.11;1791179;79;21222;-64
2021/03/08 02:30:49;;;;;;;5.25;4.50;;;;;;;10.66;47.73;98917.14;1757637;80;22354;-65
2021/03/08 02:33:27;;;;;;;6.20;4.87;;;;;;;10.64;47.80;98909.88;1756363;80;21632;-65
2021/03/08 02:35:59;;;;;;;5.55;4.67;;;;;;;10.64;47.80;98913.86;1774070;79;21119;-65
2021/03/08 02:38:30;;;;;;;5.20;4.57;;;;;;;10.64;47.82;98920.49;1802002;78;21412;-65
2021/03/08 02:41:13;;;;;;;5.08;4.55;;;;;;;10.65;47.83;98921.34;1787989;79;21109;-65
2021/03/08 02:43:45;;;;;;;5.53;4.50;;;;;;;10.61;47.82;98909.75;1778448;80;21370;-65
2021/03/08 02:46:23;;;;;;;4.53;4.05;;;;;;;10.64;47.82;98916.52;1771684;80;21252;-64
2021/03/08 02:48:52;;;;;;;5.62;4.28;;;;;;;10.63;47.83;98906.40;1790075;79;21163;-64
2021/03/08 02:51:21;;;;;;;5.45;4.45;;;;;;;10.59;47.83;98901.67;1754277;80;21190;-64
2021/03/08 02:53:50;;;;;;;5.40;4.30;;;;;;;10.64;47.82;98907.22;1774099;80;21697;-65
2021/03/08 02:56:22;;;;;;;4.95;4.37;;;;;;;10.63;47.78;98913.04;1784525;79;21231;-65
2021/03/08 02:58:50;;;;;;;5.60;4.80;;;;;;;10.65;47.77;98907.55;1765646;80;21557;-65
2021/03/08 03:01:20;;;;;;;4.92;4.42;;;;;;;10.66;47.77;98916.33;1771090;80;21169;-65
2021/03/08 03:03:52;;;;;;;5.80;4.30;;;;;;;10.66;47.79;98914.48;1790819;79;21170;-65
2021/03/08 03:06:26;;;;;;;5.00;4.40;;;;;;;10.66;47.77;98913.16;1780072;79;21174;-65
2021/03/08 03:08:56;;;;;;;;;;;;;;;10.66;47.80;98911.02;1763714;79;21206;-65
2021/03/08 03:11:25;;;;;;;5.80;4.47;;;;;;;10.66;47.79;98909.17;1765175;79;20499;-65
2021/03/08 03:13:53;;;;;;;4.97;4.20;;;;;;;10.59;47.89;98913.62;1809292;79;21624;-65
2021/03/08 03:16:21;;;;;;;5.67;4.40;;;;;;;10.60;47.90;98916.58;1759052;80;21198;-66
2021/03/08 03:18:57;;;;;;;5.60;4.67;;;;;;;10.62;47.87;98918.53;1744528;80;21153;-65
2021/03/08 03:21:31;;;;;;;5.30;4.80;;;;;;;10.63;47.86;98918.86;1760240;80;21187;-63
2021/03/08 03:24:00;;;;;;;5.10;4.28;;;;;;;10.64;47.85;98916.52;1773492;80;21179;-64
2021/03/08 03:26:29;;;;;;;5.20;4.70;;;;;;;10.63;47.84;98917.02;1785326;79;21168;-64
2021/03/08 03:28:56;;;;;;;6.30;4.95;;;;;;;10.64;47.87;98919.17;1801354;79;21144;-65
2021/03/08 03:31:26;;;;;;;5.35;4.70;;;;;;;10.65;47.87;98917.36;1772351;80;21151;-65
2021/03/08 03:33:55;;;;;;;4.53;3.98;;;;;;;10.65;47.84;98914.19;1766354;80;21328;-64
2021/03/08 03:36:29;;;;;;;4.78;3.98;;;;;;;10.66;47.84;98920.31;1785523;79;21079;-66
2021/03/08 03:38:58;;;;;;;5.28;3.87;;;;;;;10.66;47.87;98917.14;1779987;79;21218;-66
2021/03/08 03:41:26;;;;;;;5.08;4.37;;;;;;;10.65;47.85;98914.19;1792383;79;21138;-64
2021/03/08 03:43:55;;;;;;;5.62;4.25;;;;;;;10.66;47.86;98920.31;1792707;79;21123;-64
2021/03/08 03:46:23;;;;;;;5.83;4.65;;;;;;;10.66;47.84;98917.14;1785812;79;21216;-64
2021/03/08 03:48:51;;;;;;;5.12;4.50;;;;;;;10.67;47.87;98917.98;1761946;80;21182;-65
2021/03/08 03:51:20;;;;;;;4.20;3.80;;;;;;;10.66;47.87;98917.14;1775325;80;21210;-66
2021/03/08 03:53:50;;;;;;;4.83;4.37;;;;;;;10.66;47.86;98909.69;1782309;79;21155;-65
2021/03/08 03:56:18;;;;;;;5.47;4.80;;;;;;;10.67;47.87;98916.14;1781748;80;21145;-64
2021/03/08 03:58:51;;;;;;;4.58;3.67;;;;;;;10.67;47.86;98916.14;1754907;80;21353;-67
2021/03/08 04:01:23;;;;;;;5.33;4.67;;;;;;;10.67;47.87;98912.67;1778135;80;21226;-66
2021/03/08 04:04:01;;;;;;;5.47;4.25;;;;;;;10.66;47.87;98910.50;1759728;80;21182;-67
2021/03/08 04:06:49;;;;;;;5.15;4.65;;;;;;;10.66;47.86;98915.00;1803996;79;21607;-67
2021/03/08 04:09:23;;;;;;;4.58;4.05;;;;;;;10.64;47.89;98913.86;1768145;80;21158;-66
2021/03/08 04:11:53;;;;;;;5.53;4.80;;;;;;;10.63;47.89;98916.20;1781898;79;21376;-66
2021/03/08 04:14:22;;;;;;;5.17;4.55;;;;;;;10.63;47.93;98917.54;1759179;80;21158;-66
2021/03/08 04:16:55;;;;;;;5.67;4.28;;;;;;;10.63;47.95;98917.54;1783423;79;21609;-66
2021/03/08 04:19:29;;;;;;;5.40;4.62;;;;;;;10.63;47.93;98924.18;1769221;80;21164;-66
2021/03/08 04:22:04;;;;;;;5.12;4.25;;;;;;;10.63;47.96;98924.18;1800725;79;21149;-66
2021/03/08 04:24:34;;;;;;;5.65;4.65;;;;;;;10.62;47.96;98916.72;1798190;79;21450;-65
2021/03/08 04:27:06;;;;;;;5.58;4.80;;;;;;;10.62;47.98;98915.88;1767848;79;21215;-66
2021/03/08 04:29:41;;;;;;;4.80;4.30;;;;;;;10.62;47.99;98922.03;1768905;79;21215;-66
2021/03/08 04:32:14;;;;;;;5.10;4.25;;;;;;;10.62;47.99;98919.86;1778824;79;21170;-66
2021/03/08 04:34:43;;;;;;;5.42;4.58;;;;;;;10.61;48.01;98919.05;1792854;79;21128;-66
2021/03/08 04:37:15;;;;;;;6.08;4.50;;;;;;;10.61;48.01;98919.56;1776381;80;21462;-66
2021/03/08 04:39:44;;;;;;;6.08;4.28;;;;;;;10.61;48.01;98919.05;1780076;80;21113;-65
2021/03/08 04:42:14;;;;;;;5.65;4.35;;;;;;;10.61;48.04;98916.91;1774487;80;21203;-65
2021/03/08 04:44:45;;;;;;;5.40;4.22;;;;;;;10.60;48.05;98910.78;1791423;79;21582;-66
2021/03/08 04:47:20;;;;;;;4.85;4.35;;;;;;;10.59;48.06;98918.41;1802227;79;21160;-66
2021/03/08 04:49:48;;;;;;;;;;;;;;;10.60;48.05;98921.88;1776702;80;21640;-65
2021/03/08 04:52:19;;;;;;;5.65;4.45;;;;;;;10.59;48.06;98920.26;1775405;80;20284;-65
2021/03/08 04:54:46;;;;;;;5.10;4.40;;;;;;;10.52;48.19;98924.67;1784586;79;21135;-64
2021/03/08 04:57:17;;;;;;;5.87;4.78;;;;;;;10.52;48.21;98923.34;1773425;80;21163;-65
2021/03/08 04:59:48;;;;;;;4.80;3.98;;;;;;;10.53;48.20;98921.02;1777553;79;21101;-65
2021/03/08 05:02:18;;;;;;;5.22;4.42;;;;;;;10.54;48.21;98926.63;1800221;79;21341;-65
2021/03/08 05:04:48;;;;;;;5.67;4.78;;;;;;;10.54;48.22;98922.64;1761295;80;21148;-66
2021/03/08 05:07:18;;;;;;;5.10;4.60;;;;;;;10.54;48.21;98923.97;1769373;79;21173;-65
2021/03/08 05:09:46;;;;;;;5.37;4.85;;;;;;;10.53;48.21;98924.48;1772119;80;21140;-66
2021/03/08 05:12:13;;;;;;;5.90;5.17;;;;;;;10.55;48.19;98926.95;1782912;79;21184;-66
2021/03/08 05:14:43;;;;;;;5.65;4.50;;;;;;;10.54;48.20;98926.11;1763728;80;21343;-66
2021/03/08 05:17:13;;;;;;;5.53;4.28;;;;;;;10.55;48.21;98925.12;1769322;79;21186;-66
2021/03/08 05:19:44;;;;;;;5.17;4.28;;;;;;;10.55;48.23;98933.59;1723985;80;21315;-65
2021/03/08 05:22:13;;;;;;;4.30;3.60;;;;;;;10.56;48.21;98932.58;1776239;80;21183;-66
2021/03/08 05:24:41;;;;;;;5.75;4.58;;;;;;;10.55;48.23;98931.76;1782998;79;21163;-66
2021/03/08 05:28:55;;;;;;;5.92;4.30;;;;;;;10.62;48.20;98938.45;1826809;75;28248;-66
2021/03/08 05:31:23;;;;;;;5.40;4.30;;;;;;;10.53;48.28;98949.72;1798326;77;21114;-65
2021/03/08 05:33:51;;;;;;;5.10;4.22;;;;;;;10.54;48.27;98950.02;1790909;79;21384;-65
2021/03/08 05:36:19;;;;;;;6.00;4.80;;;;;;;10.56;48.27;98951.98;1798412;77;21205;-65
2021/03/08 05:38:48;;;;;;;5.40;4.12;;;;;;;10.55;48.26;98954.84;1791486;78;21064;-66
2021/03/08 05:41:25;;;;;;;4.92;4.22;;;;;;;10.56;48.25;98966.58;1791988;77;21181;-66
2021/03/08 05:43:55;;;;;;;4.70;4.00;;;;;;;10.56;48.24;98979.05;1783395;77;21127;-66
2021/03/08 05:46:47;;;;;;;5.85;3.98;;;;;;;10.57;48.25;98986.02;1788505;78;21190;-67
2021/03/08 05:50:03;;;;;;;5.03;4.30;;;;;;;10.56;48.25;98989.16;1783300;78;21631;-65
2021/03/08 05:53:04;;;;;;;4.65;4.22;;;;;;;10.55;48.28;98988.86;1795814;77;21126;-67
2021/03/08 05:55:58;;;;;;;4.12;3.72;;;;;;;10.52;48.30;98998.52;1768209;78;21189;-66
2021/03/08 05:58:49;;;;;;;5.85;4.62;;;;;;;10.50;48.37;98998.39;1689729;82;21617;-65
2021/03/08 06:01:41;;;;;;;4.85;4.25;;;;;;;10.48;48.38;99003.88;1727078;81;21402;-64
2021/03/08 06:04:20;;;;;;;5.00;3.95;;;;;;;10.47;48.41;98998.27;1750324;79;21174;-64
2021/03/08 06:07:12;;;;;;;4.35;3.85;;;;;;;10.47;48.43;99004.05;1737180;79;21197;-64
2021/03/08 06:10:07;;;;;;;4.58;3.95;;;;;;;10.47;48.41;99006.72;1745488;80;21147;-65
2021/03/08 06:12:37;;;;;;;4.53;3.65;;;;;;;10.47;48.45;99008.04;1738040;79;21123;-65
2021/03/08 06:15:10;;;;;;;4.58;3.95;;;;;;;10.46;48.45;99010.39;1737667;79;22236;-66
2021/03/08 06:17:38;;;;;;;5.05;3.83;;;;;;;10.47;48.46;99018.66;1743275;80;21159;-64
2021/03/08 06:20:08;;;;;;;4.05;3.55;;;;;;;10.47;48.43;99023.49;1735022;80;21159;-65
2021/03/08 06:22:36;;;;;;;4.58;3.83;;;;;;;10.48;48.43;99033.60;1748419;79;21182;-67
2021/03/08 06:25:06;;;;;;;4.28;3.65;;;;;;;10.49;48.40;99035.23;1746928;79;21147;-66
2021/03/08 06:27:33;;;;;;;5.10;3.87;;;;;;;10.50;48.38;99040.36;1756303;80;21516;-66
2021/03/08 06:30:00;;;;;;;3.87;3.47;;;;;;;10.51;48.37;99034.06;1696377;81;21142;-66
2021/03/08 06:32:29;;;;;;;3.90;3.55;;;;;;;10.52;48.34;99045.50;1743568;81;21171;-66
2021/03/08 06:34:57;;;;;;;4.45;3.60;;;;;;;10.52;48.33;99046.31;1734956;79;21193;-66
2021/03/08 06:37:26;;;;;;;3.50;3.17;;;;;;;10.54;48.31;99051.45;1740992;79;21191;-65
2021/03/08 06:39:54;;;;;;;3.98;3.25;;;;;;;10.55;48.31;99057.09;1740756;79;21373;-65
2021/03/08 06:42:22;;;;;;;3.80;3.00;;;;;;;10.55;48.27;99056.58;1759789;79;21182;-64
2021/03/08 06:44:50;;;;;;;3.45;3.05;;;;;;;10.56;48.26;99057.39;1746876;79;21179;-66
2021/03/08 06:47:19;;;;;;;4.10;3.30;;;;;;;10.58;48.24;99058.03;1756304;80;21190;-65
2021/03/08 06:49:47;;;;;;;4.20;2.75;;;;;;;10.59;48.21;99059.19;1734549;79;21167;-64
2021/03/08 06:52:17;;;;;;;3.95;2.80;;;;;;;10.60;48.20;99058.67;1744119;81;21643;-65
2021/03/08 06:54:49;;;;;;;4.00;2.90;;;;;;;10.61;48.18;99058.49;1762915;81;21591;-65
2021/03/08 06:57:30;;;;;;;3.77;2.87;;;;;;;10.63;48.14;99056.47;1737417;80;21191;-65
2021/03/08 06:59:59;;;;;;;3.30;2.70;;;;;;;10.63;48.12;99055.66;1750154;79;21650;-65
2021/03/08 07:02:44;;;;;;;3.27;2.80;;;;;;;10.65;48.09;99050.16;1746804;79;21171;-65
2021/03/08 07:05:26;;;;;;;3.27;2.98;;;;;;;10.65;48.06;99052.31;1745766;79;22178;-63
2021/03/08 07:07:58;;;;;;;2.90;2.30;;;;;;;10.66;48.05;99052.61;1753212;79;21203;-65
2021/03/08 07:10:41;;;;;;;4.37;2.80;;;;;;;10.66;48.04;99047.30;1761557;80;21219;-66
2021/03/08 07:13:11;;;;;;;3.42;3.12;;;;;;;10.67;48.02;99051.62;1739580;79;21163;-64
2021/03/08 07:16:00;;;;;;;3.10;2.77;;;;;;;10.68;48.01;99056.42;1745490;79;21178;-65
2021/03/08 07:18:29;;;;;;;2.90;2.60;;;;;;;10.69;47.97;99045.61;1749588;80;21371;-64
2021/03/08 07:21:23;;;;;;;3.12;2.42;;;;;;;10.71;47.98;99052.89;1742957;79;21165;-64
2021/03/08 07:23:52;;;;;;;2.90;2.42;;;;;;;10.72;47.94;99063.00;1736833;80;21619;-64
2021/03/08 07:26:22;;;;;;;3.37;2.37;;;;;;;10.73;47.89;99062.83;1748418;80;21123;-66
2021/03/08 07:29:13;;;;;;;3.50;2.37;;;;;;;10.75;47.87;99074.09;1744905;80;21643;-65
2021/03/08 07:31:42;;;;;;;3.35;2.50;;;;;;;10.78;47.83;99064.43;1755699;79;22181;-64
2021/03/08 07:34:12;;;;;;;2.80;2.47;;;;;;;10.79;47.80;99065.24;1784403;78;21178;-65
2021/03/08 07:36:42;;;;;;;4.55;2.42;;;;;;;10.80;47.79;99063.73;1781298;77;21646;-66
2021/03/08 07:39:17;;;;;;;3.70;2.90;;;;;;;10.81;47.73;99070.69;1795659;77;21169;-64
2021/03/08 07:41:59;;;;;;;2.58;2.12;;;;;;;10.83;47.72;99062.53;1784447;78;21181;-65
2021/03/08 07:44:29;;;;;;;3.30;2.50;;;;;;;10.84;47.69;99061.53;1784072;77;21192;-64
2021/03/08 07:47:15;;;;;;;2.70;2.00;;;;;;;10.86;47.66;99061.36;1793666;77;21158;-65
2021/03/08 07:49:43;;;;;;;2.60;2.02;;;;;;;10.86;47.63;99062.17;1799056;77;21174;-63
2021/03/08 07:52:17;;;;;;;2.58;2.10;;;;;;;10.86;47.61;99074.13;1799452;77;21570;-64
2021/03/08 07:54:58;;;;;;;2.83;1.85;;;;;;;10.89;47.62;99070.27;1789417;78;21121;-64
2021/03/08 07:57:27;;;;;;;3.15;2.10;;;;;;;10.90;47.59;99075.91;1800989;77;22292;-66
2021/03/08 07:59:55;;;;;;;2.83;2.10;;;;;;;10.92;47.61;99072.56;1789647;77;21661;-65
2021/03/08 08:02:23;;;;;;;2.27;1.92;;;;;;;10.94;47.56;99072.69;1787450;77;21154;-64
2021/03/08 08:04:52;;;;;;;3.05;2.12;;;;;;;10.99;47.53;99072.11;1785896;77;21110;-65
2021/03/08 08:07:21;;;;;;;3.27;2.47;;;;;;;10.99;47.49;99074.28;1792829;77;21162;-63
2021/03/08 08:09:49;;;;;;;2.85;2.00;;;;;;;11.03;47.44;99070.75;1731904;80;23585;-63
2021/03/08 08:12:20;;;;;;;2.60;1.92;;;;;;;11.05;47.38;99066.07;1742460;80;21142;-64
2021/03/08 08:14:48;;;;;;;2.67;2.05;;;;;;;11.09;47.31;99070.52;1750230;80;21174;-67
2021/03/08 08:17:16;;;;;;;3.10;2.20;;;;;;;11.12;47.26;99075.44;1746108;79;21214;-66
2021/03/08 08:19:45;;;;;;;4.58;2.12;;;;;;;11.14;47.22;99074.73;1743824;80;21135;-65
2021/03/08 08:22:24;;;;;;;2.22;1.70;;;;;;;11.15;47.17;99070.57;1749594;79;21376;-66
2021/03/08 08:24:55;;;;;;;2.22;1.90;;;;;;;11.18;47.14;99071.53;1741845;79;21167;-69
2021/03/08 08:27:24;;;;;;;2.55;2.08;;;;;;;11.21;47.08;99073.80;1748117;81;21211;-67
2021/03/08 08:29:51;;;;;;;2.40;1.57;;;;;;;11.24;47.03;99067.27;1747868;79;21199;-65
2021/03/08 08:32:19;;;;;;;2.10;1.50;;;;;;;11.28;46.97;99077.03;1755120;80;21652;-66
2021/03/08 08:34:49;;;;;;;2.17;1.72;;;;;;;11.29;46.91;99070.71;1753516;80;21382;-66
2021/03/08 08:37:24;;;;;;;2.60;1.82;;;;;;;11.31;46.85;99077.48;1733778;80;21248;-66
2021/03/08 08:39:57;;;;;;;2.22;1.40;;;;;;;11.33;46.81;99070.13;1754245;79;21183;-66
2021/03/08 08:42:26;;;;;;;2.25;1.75;;;;;;;11.35;46.76;99068.62;1742483;79;21763;-68
2021/03/08 08:44:56;;;;;;;1.87;1.57;;;;;;;11.37;46.72;99074.05;1741322;81;21143;-67
2021/03/08 08:47:31;;;;;;;2.77;2.00;;;;;;;11.40;46.68;99078.19;1734284;79;21384;-66
2021/03/08 08:50:06;;;;;;;2.15;1.60;;;;;;;11.44;46.63;99072.81;1733752;80;21147;-67
2021/03/08 08:52:56;;;;;;;2.02;1.62;;;;;;;11.48;46.62;99082.56;1736429;79;21655;-65
2021/03/08 08:55:42;;;;;;;2.65;1.72;;;;;;;11.52;46.60;99077.99;1743244;80;21151;-67
2021/03/08 08:58:29;;;;;;;2.45;1.60;;;;;;;11.58;46.60;99079.06;1742784;79;21631;-66
2021/03/08 09:01:23;;;;;;;2.42;1.40;;;;;;;11.64;46.60;99074.31;1808422;77;21230;-66
2021/03/08 09:04:00;;;;;;;1.62;1.40;;;;;;;11.72;46.61;99078.67;1779862;79;21645;-67
2021/03/08 09:06:50;;;;;;;2.08;1.87;;;;;;;11.79;46.66;99085.70;1787331;79;21157;-66
2021/03/08 09:09:32;;;;;;;2.47;1.57;;;;;;;11.90;46.61;99086.21;1791519;77;21197;-66
2021/03/08 09:12:07;;;;;;;2.47;1.77;;;;;;;11.99;46.58;99083.25;1779070;77;21198;-65
2021/03/08 09:14:49;;;;;;;1.90;1.55;;;;;;;12.08;46.58;99072.45;1787876;77;21272;-65
2021/03/08 09:17:33;;;;;;;2.22;1.40;;;;;;;12.15;46.57;99093.30;1793427;77;21178;-65
2021/03/08 09:20:08;;;;;;;1.50;1.40;;;;;;;12.22;46.48;99095.47;1794352;77;21140;-65
2021/03/08 09:22:50;;;;;;;1.67;1.57;;;;;;;12.31;46.38;99099.64;1790507;77;21587;-64
2021/03/08 09:25:25;;;;;;;1.85;1.35;;;;;;;12.39;46.25;99094.14;1790648;77;21154;-66
2021/03/08 09:28:11;;;;;;;1.70;1.25;;;;;;;12.47;46.16;99087.03;1816123;77;22240;-66
2021/03/08 09:30:41;;;;;;;2.00;1.40;;;;;;;12.55;46.21;99090.34;1737478;80;21168;-67
2021/03/08 09:33:17;;;;;;;2.33;1.37;;;;;;;12.64;46.22;99100.34;1769367;78;21128;-66
2021/03/08 09:35:50;;;;;;;1.47;1.12;;;;;;;12.72;46.19;99098.02;1781755;79;21185;-66
2021/03/08 09:38:24;;;;;;;2.00;1.50;;;;;;;12.78;46.13;99106.03;1785626;77;21928;-66
2021/03/08 09:40:56;;;;;;;1.65;1.22;;;;;;;12.85;46.01;99099.94;1796447;79;21503;-65
2021/03/08 09:43:32;;;;;;;1.80;1.22;;;;;;;12.91;45.89;99095.14;1804579;77;21184;-66
2021/03/08 09:46:16;;;;;;;1.90;1.40;;;;;;;13.01;45.78;99107.58;1797003;77;21229;-65
2021/03/08 09:48:54;;;;;;;1.80;1.47;;;;;;;13.09;45.63;99103.91;1808165;77;21142;-65
2021/03/08 09:51:22;;;;;;;2.02;1.30;;;;;;;13.17;45.64;99101.91;1783775;77;21134;-65
2021/03/08 09:53:54;;;;;;;1.15;1.00;;;;;;;13.25;45.48;99097.39;1789260;79;21365;-65
2021/03/08 09:56:26;;;;;;;2.45;1.40;;;;;;;13.32;45.41;99099.60;1809044;79;21201;-67
2021/03/08 09:59:04;;;;;;;1.47;1.10;;;;;;;13.39;45.44;99104.45;1789678;77;21642;-66
2021/03/08 10:01:32;;;;;;;1.62;1.40;;;;;;;13.45;45.41;99101.48;1781514;79;21161;-65
2021/03/08 10:04:00;;;;;;;2.08;1.30;;;;;;;13.54;45.44;99099.76;1795836;79;21167;-65
2021/03/08 10:06:32;;;;;;;1.50;1.35;;;;;;;13.64;45.59;99103.36;1790236;79;21732;-65
2021/03/08 10:09:19;;;;;;;1.72;1.30;;;;;;;13.75;45.81;99097.91;1785928;77;21197;-65
2021/03/08 10:11:46;;;;;;;1.47;1.37;;;;;;;13.87;45.93;99098.12;1795990;77;21106;-65
2021/03/08 10:14:25;;;;;;;1.45;1.30;;;;;;;13.99;45.35;99098.36;1785934;77;21146;-66
2021/03/08 10:17:11;;;;;;;1.52;1.20;;;;;;;14.06;45.25;99104.00;1788512;77;21634;-65
2021/03/08 10:19:58;;;;;;;1.45;1.22;;;;;;;14.14;45.36;99106.45;1790122;79;21382;-65
2021/03/08 10:22:34;;;;;;;1.55;1.30;;;;;;;14.25;45.69;99099.64;1792458;79;21535;-64
2021/03/08 10:25:23;;;;;;;2.25;1.50;;;;;;;14.38;45.76;99089.98;1795706;77;21601;-64
2021/03/08 10:27:56;;;;;;;2.25;1.32;;;;;;;14.52;45.83;99095.59;1793869;77;21173;-65
2021/03/08 10:30:26;;;;;;;1.75;1.50;;;;;;;14.64;45.04;99096.64;1778434;79;21135;-65
2021/03/08 10:32:56;;;;;;;1.90;1.30;;;;;;;14.74;45.13;99087.66;1789797;79;21324;-64
2021/03/08 10:35:25;;;;;;;1.65;1.17;;;;;;;14.86;45.23;99084.32;1791827;79;21122;-65
2021/03/08 10:37:52;;;;;;;1.30;1.20;;;;;;;15.01;45.43;99084.03;1788847;77;21131;-64
2021/03/08 10:40:21;;;;;;;1.57;1.20;;;;;;;15.05;45.00;99078.06;1784904;77;21138;-64
2021/03/08 10:42:49;;;;;;;1.22;1.12;;;;;;;15.28;45.12;99084.74;1784352;79;21177;-66
2021/03/08 10:45:16;;;;;;;1.60;1.12;;;;;;;15.43;45.00;99086.61;1786143;77;21322;-67
2021/03/08 10:47:44;;;;;;;1.02;1.00;;;;;;;15.57;44.90;99073.95;1785844;79;21178;-65
2021/03/08 10:50:12;;;;;;;1.62;1.25;;;;;;;15.73;44.98;99064.59;1774900;79;21127;-66
2021/03/08 10:52:39;;;;;;;1.30;1.05;;;;;;;15.89;44.92;99076.08;1785256;79;21166;-67
2021/03/08 10:55:08;;;;;;;1.17;0.90;;;;;;;16.07;44.75;99083.86;1786343;79;21130;-65
2021/03/08 10:57:50;;;;;;;1.57;1.37;;;;;;;16.24;44.59;99084.13;1782671;77;21376;-71
2021/03/08 11:00:21;;;;;;;1.50;1.40;;;;;;;16.40;43.97;99085.41;1784759;77;21425;-67
2021/03/08 11:02:49;;;;;;;2.45;1.30;;;;;;;16.56;43.93;99075.45;1780160;79;21130;-67
2021/03/08 11:05:19;;;;;;;1.55;1.30;;;;;;;16.77;43.94;99072.84;1779083;79;21207;-66
2021/03/08 11:07:47;;;;;;;1.52;1.40;;;;;;;16.93;43.27;99081.35;1754393;79;21181;-65
2021/03/08 11:10:14;;;;;;;1.42;1.10;;;;;;;17.00;42.66;99078.06;1758216;79;21344;-66
2021/03/08 11:12:43;;;;;;;1.35;1.25;;;;;;;17.00;42.19;99085.59;1754264;80;21169;-66
2021/03/08 11:15:12;;;;;;;1.55;1.45;;;;;;;16.99;42.01;99090.64;1752384;79;21640;-66
2021/03/08 11:17:41;;;;;;;1.20;1.10;;;;;;;16.94;42.00;99086.50;1716389;80;21122;-65
2021/03/08 11:20:15;;;;;;;1.25;1.10;;;;;;;16.87;42.01;99086.56;1757699;79;21110;-67
2021/03/08 11:23:04;;;;;;;1.30;1.00;;;;;;;16.81;42.07;99091.98;1747771;80;21370;-67
2021/03/08 11:25:40;;;;;;;1.05;0.93;;;;;;;16.73;42.13;99092.27;1752911;80;21198;-66
2021/03/08 11:28:13;;;;;;;1.20;1.10;;;;;;;16.62;42.24;99091.17;1743849;79;21225;-66
2021/03/08 11:30:49;;;;;;;1.70;1.12;;;;;;;16.53;42.34;99093.31;1748226;80;21190;-65
2021/03/08 11:33:17;;;;;;;1.37;1.27;;;;;;;16.42;42.39;99089.52;1747114;80;21896;-70
2021/03/08 11:35:51;;;;;;;1.07;1.00;;;;;;;16.35;42.50;99092.78;1759477;80;22661;-67
2021/03/08 11:38:24;;;;;;;0.80;0.80;;;;;;;16.27;42.61;99094.42;1745490;80;21094;-66
2021/03/08 11:40:52;;;;;;;1.87;1.20;;;;;;;16.19;42.69;99096.05;1752764;79;21174;-65
2021/03/08 11:43:23;;;;;;;1.45;1.27;;;;;;;16.11;42.81;99093.13;1762821;79;21143;-65
2021/03/08 11:45:51;;;;;;;1.10;1.00;;;;;;;16.04;42.92;99104.41;1755946;79;21605;-63
2021/03/08 11:48:22;;;;;;;1.20;1.10;;;;;;;15.97;42.99;99110.34;1761107;79;21376;-67
2021/03/08 11:50:49;;;;;;;1.07;0.90;;;;;;;15.90;43.06;99103.18;1755236;79;21225;-64
2021/03/08 11:53:18;;;;;;;1.12;1.05;;;;;;;15.84;43.19;99105.89;1759959;79;21177;-68
2021/03/08 11:55:46;;;;;;;1.90;1.20;;;;;;;15.77;43.25;99112.66;1766584;79;21138;-64
2021/03/08 11:58:20;;;;;;;0.90;0.90;;;;;;;15.72;43.25;99109.77;1757628;80;21173;-67
2021/03/08 12:00:47;;;;;;;1.15;1.05;;;;;;;15.66;43.30;99111.97;1745533;80;21380;-69
2021/03/08 12:03:14;;;;;;;4.08;1.75;;;;;;;15.64;42.63;99102.00;1758143;79;21166;-67